Time;durP1;ratioP1;P1;durP2;ratioP2;P2;SDS_P1;SDS_P2;PMS_P1;PMS_P2;Temp;Humidity;BMP_temperature;BMP_pressure;BME280_temperature;BME280_humidity;BME280_pressure;Samples;Min_cycle;Max_cycle;Signal;HPM_P1;HPM_P2
2022/01/21 00:01:25;;;;;;;2.10;1.03;;;;;;;-2.94;100.00;101400.19;5005204;28;20040;-79
2022/01/21 00:03:53;;;;;;;3.60;1.27;;;;;;;-2.93;100.00;101401.06;5000683;28;20037;-79
2022/01/21 00:06:21;;;;;;;4.27;1.20;;;;;;;-2.99;99.45;101403.34;5019119;28;20224;-79
2022/01/21 00:08:51;;;;;;;6.47;1.00;;;;;;;-2.96;99.23;101399.19;5037677;28;20042;-79
2022/01/21 00:11:19;;;;;;;2.60;1.20;;;;;;;-2.94;98.79;101399.28;5035369;28;20045;-78
2022/01/21 00:13:48;;;;;;;4.43;1.50;;;;;;;-3.04;98.65;101404.84;5008615;28;20503;-80
2022/01/21 00:16:20;;;;;;;2.70;1.67;;;;;;;-3.13;99.33;101410.47;5026615;28;20049;-79
2022/01/21 00:18:56;;;;;;;2.97;1.13;;;;;;;-3.18;98.08;101411.97;5019948;28;20140;-79
2022/01/21 00:32:30;;;;;;;7.73;1.40;;;;;;;-3.47;99.51;101423.47;5030210;28;20049;-78
2022/01/21 00:34:56;;;;;;;3.67;1.47;;;;;;;-3.46;99.55;101422.66;5052719;28;20053;-79
2022/01/21 00:37:23;;;;;;;3.60;1.67;;;;;;;-3.49;99.30;101417.38;4993291;28;20082;-79
2022/01/21 00:39:55;;;;;;;6.70;1.70;;;;;;;-3.42;98.76;101419.44;5029368;28;20069;-78
2022/01/21 00:44:50;;;;;;;3.90;1.47;;;;;;;-3.53;98.79;101418.94;5034481;28;20057;-79
2022/01/21 00:47:17;;;;;;;5.37;1.60;;;;;;;-3.51;98.42;101417.28;5038583;28;20099;-78
2022/01/21 00:49:44;;;;;;;3.30;1.70;;;;;;;-3.57;98.91;101422.16;5017308;28;20064;-78
2022/01/21 00:52:11;;;;;;;5.20;1.20;;;;;;;-3.54;98.93;101430.03;5056730;28;20046;-79
2022/01/21 00:54:40;;;;;;;4.43;1.57;;;;;;;-3.62;99.38;101438.22;5027418;28;20042;-79
2022/01/21 00:57:07;;;;;;;2.93;1.13;;;;;;;-3.63;99.48;101433.88;5044745;28;20048;-78
2022/01/21 00:59:33;;;;;;;6.73;1.80;;;;;;;-3.63;99.25;101442.50;5030264;28;20049;-79
2022/01/21 01:02:00;;;;;;;3.87;1.47;;;;;;;-3.62;99.99;101430.47;5048251;28;20490;-79
2022/01/21 01:04:27;;;;;;;5.77;1.33;;;;;;;-3.64;99.35;101435.56;5005026;28;20038;-80
2022/01/21 01:06:57;;;;;;;4.57;1.13;;;;;;;-3.71;99.60;101444.72;5014066;28;20053;-80
2022/01/21 01:09:24;;;;;;;4.17;1.13;;;;;;;-3.72;99.58;101453.28;5015441;28;20099;-79
2022/01/21 01:20:00;;;;;;;3.90;1.20;;;;;;;-3.92;100.00;101466.88;5030845;28;20052;-80
2022/01/21 01:22:40;;;;;;;4.73;1.50;;;;;;;-3.97;100.00;101466.63;5008668;28;20384;-80
2022/01/21 01:27:53;;;;;;;5.53;1.80;;;;;;;-4.07;100.00;101472.16;5022310;28;20619;-80
2022/01/21 01:30:22;;;;;;;1.97;0.90;;;;;;;-4.08;100.00;101474.66;5083128;23;20028;-91
2022/01/21 01:32:55;;;;;;;4.03;1.40;;;;;;;-4.10;100.00;101468.53;5046804;28;20054;-92
2022/01/21 01:35:25;;;;;;;4.03;1.47;;;;;;;-4.06;100.00;101478.19;5046738;28;20020;-93
2022/01/21 01:40:27;;;;;;;5.57;1.80;;;;;;;-4.20;100.00;101479.16;5064191;28;20029;-92
2022/01/21 01:51:33;;;;;;;2.90;1.20;;;;;;;-4.32;100.00;101470.00;5046919;28;20053;-91
2022/01/21 01:54:09;;;;;;;5.03;1.10;;;;;;;-4.32;100.00;101469.09;5047811;28;20020;-90
2022/01/21 01:56:39;;;;;;;1.60;0.90;;;;;;;-4.35;100.00;101466.38;5043742;28;20052;-92
2022/01/21 01:59:07;;;;;;;2.57;1.33;;;;;;;-4.37;100.00;101462.81;5036919;28;20024;-91
2022/01/21 02:01:34;;;;;;;2.33;1.27;;;;;;;-4.36;100.00;101467.19;5046691;28;20031;-90
2022/01/21 02:04:04;;;;;;;3.73;1.20;;;;;;;-4.35;100.00;101474.13;5047786;28;20100;-89
2022/01/21 02:06:31;;;;;;;1.83;1.40;;;;;;;-4.27;100.00;101471.13;5045351;28;20034;-91
2022/01/21 02:08:59;;;;;;;4.20;1.47;;;;;;;-4.18;100.00;101465.56;5047606;28;20032;-94
2022/01/21 02:11:28;;;;;;;5.40;1.40;;;;;;;-4.10;100.00;101471.13;5031707;28;20028;-94
2022/01/21 02:13:59;;;;;;;2.53;1.00;;;;;;;-4.12;100.00;101467.56;5047101;28;20092;-94
2022/01/21 02:21:44;;;;;;;2.97;1.00;;;;;;;-3.91;100.00;101470.34;5064297;28;20029;-94
2022/01/21 02:24:19;;;;;;;2.58;0.80;;;;;;;-3.85;99.96;101473.25;5057410;28;20025;-95
2022/01/21 02:26:47;;;;;;;2.27;1.33;;;;;;;-3.81;99.01;101475.16;5055138;28;20063;-93
2022/01/21 02:29:27;;;;;;;5.87;1.40;;;;;;;-3.72;98.09;101480.78;5040052;28;20055;-93
2022/01/21 02:31:57;;;;;;;9.23;1.53;;;;;;;-3.60;97.11;101477.94;5044767;28;20025;-95
2022/01/21 02:34:24;;;;;;;5.17;1.53;;;;;;;-3.68;96.84;101485.31;5042729;28;20021;-94
2022/01/21 02:36:51;;;;;;;14.23;1.60;;;;;;;-3.64;96.53;101482.06;5045106;28;20037;-94
2022/01/21 02:39:21;;;;;;;6.23;1.47;;;;;;;-3.55;95.43;101485.09;5062839;28;20028;-93
2022/01/21 02:41:47;;;;;;;9.70;1.83;;;;;;;-3.59;95.13;101490.06;5044453;28;20036;-93
2022/01/21 02:44:17;;;;;;;3.67;1.40;;;;;;;-3.63;96.13;101490.69;5027115;28;20040;-94
2022/01/21 02:46:45;;;;;;;2.43;1.50;;;;;;;-3.57;94.98;101489.31;5043707;28;20050;-93
2022/01/21 02:49:12;;;;;;;4.93;1.53;;;;;;;-3.62;95.43;101495.94;5043940;28;20020;-93
2022/01/21 02:51:42;;;;;;;2.90;1.17;;;;;;;-3.48;93.52;101491.47;5055664;28;20096;-94
2022/01/21 02:54:09;;;;;;;3.67;1.37;;;;;;;-3.43;92.72;101493.47;5053272;28;20319;-93
2022/01/21 02:56:39;;;;;;;4.57;1.17;;;;;;;-3.38;92.14;101500.53;5043122;28;20021;-93
2022/01/21 02:59:08;;;;;;;1.80;0.90;;;;;;;-3.31;90.44;101497.44;5033721;28;20100;-93
2022/01/21 03:01:40;;;;;;;5.00;1.30;;;;;;;-3.13;88.17;101498.34;5033031;28;20084;-95
2022/01/21 03:04:22;;;;;;;5.05;1.67;;;;;;;-3.18;88.32;101498.13;5049306;28;20028;-94
2022/01/21 03:06:51;;;;;;;3.17;1.30;;;;;;;-3.18;89.18;101503.31;5045582;28;20047;-93
2022/01/21 03:09:17;;;;;;;3.97;1.30;;;;;;;-2.84;87.23;101492.84;5046691;28;20030;-93
2022/01/21 03:11:44;;;;;;;4.07;0.83;;;;;;;-2.95;86.69;101504.38;5046720;28;20024;-93
2022/01/21 03:14:13;;;;;;;3.43;1.30;;;;;;;-3.04;87.06;101503.06;5034327;28;20044;-94
2022/01/21 03:16:40;;;;;;;4.53;1.20;;;;;;;-2.95;86.01;101509.53;5062709;28;20039;-93
2022/01/21 03:19:07;;;;;;;5.20;1.17;;;;;;;-2.96;85.77;101512.06;5048451;28;20029;-93
2022/01/21 03:21:37;;;;;;;5.13;1.30;;;;;;;-2.89;84.23;101514.13;5046300;28;20027;-94
2022/01/21 03:24:04;;;;;;;3.80;1.47;;;;;;;-3.00;85.07;101508.47;5049455;28;20040;-95
2022/01/21 03:26:33;;;;;;;5.17;0.93;;;;;;;-3.07;85.89;101508.97;5043422;28;20025;-95
2022/01/21 03:29:03;;;;;;;4.47;1.10;;;;;;;-3.11;86.00;101514.81;5035809;28;20093;-94
2022/01/21 03:31:33;;;;;;;3.67;1.10;;;;;;;-2.87;84.76;101512.50;5036859;28;20032;-96
2022/01/21 03:34:01;;;;;;;1.73;0.70;;;;;;;-2.95;84.71;101519.00;5031239;28;20017;-94
2022/01/21 03:36:29;;;;;;;13.03;1.87;;;;;;;-3.02;85.05;101532.47;5038675;28;20263;-92
2022/01/21 03:38:56;;;;;;;2.83;0.87;;;;;;;-3.09;85.36;101525.22;5042453;28;20025;-93
2022/01/21 03:41:23;;;;;;;3.67;1.10;;;;;;;-3.06;85.72;101526.25;5046622;28;20043;-94
2022/01/21 03:43:53;;;;;;;2.10;0.90;;;;;;;-2.92;84.72;101532.97;5034858;28;20025;-93
2022/01/21 03:46:20;;;;;;;1.80;1.10;;;;;;;-2.94;84.41;101537.19;5035657;28;20032;-92
2022/01/21 03:48:49;;;;;;;2.47;1.10;;;;;;;-3.00;84.55;101548.94;5047105;28;20025;-93
2022/01/21 03:51:18;;;;;;;7.97;1.30;;;;;;;-2.97;84.74;101538.72;5054488;28;20089;-93
2022/01/21 03:53:49;;;;;;;1.63;0.70;;;;;;;-3.06;85.51;101531.44;5048269;28;20024;-95
2022/01/21 03:56:17;;;;;;;6.23;1.40;;;;;;;-2.97;84.81;101536.16;5033333;28;20052;-92
2022/01/21 03:58:51;;;;;;;3.97;1.77;;;;;;;-2.99;85.63;101533.50;5065169;28;20025;-92
2022/01/21 04:01:19;;;;;;;4.03;1.63;;;;;;;-2.95;85.46;101532.81;5046158;28;20029;-93
2022/01/21 04:03:46;;;;;;;4.60;1.70;;;;;;;-3.05;86.42;101533.19;5046566;28;20029;-93
2022/01/21 04:06:34;;;;;;;1.67;1.40;;;;;;;-3.05;86.51;101532.31;5058944;28;20025;-94
2022/01/21 04:09:02;;;;;;;6.13;1.30;;;;;;;-3.00;87.28;101530.84;5033600;28;20177;-92
2022/01/21 04:11:48;;;;;;;1.80;1.03;;;;;;;-3.10;87.22;101539.84;5029568;28;20048;-95
2022/01/21 04:14:39;;;;;;;2.30;1.13;;;;;;;-3.12;88.73;101541.44;4984785;28;20038;-95
2022/01/21 04:17:08;;;;;;;4.70;1.07;;;;;;;-3.10;88.10;101534.69;4972535;28;20113;-94
2022/01/21 04:19:47;;;;;;;4.33;1.40;;;;;;;-3.01;88.42;101522.19;4984830;28;20030;-93
2022/01/21 04:22:13;;;;;;;3.40;1.20;;;;;;;-3.09;89.25;101544.22;4984284;28;20027;-93
2022/01/21 04:24:45;;;;;;;4.70;1.20;;;;;;;-3.17;89.94;101546.41;4972780;28;20031;-92
2022/01/21 04:27:12;;;;;;;5.00;2.47;;;;;;;-3.11;89.94;101551.00;4995877;28;20102;-94
2022/01/21 04:29:41;;;;;;;3.73;1.17;;;;;;;-3.13;89.44;101543.16;4983814;28;20312;-93
2022/01/21 04:32:09;;;;;;;8.00;1.70;;;;;;;-3.16;89.83;101548.19;4980095;28;20106;-92
2022/01/21 04:34:36;;;;;;;2.00;0.80;;;;;;;-3.25;90.71;101546.84;4984567;28;20018;-94
2022/01/21 04:37:09;;;;;;;3.70;1.13;;;;;;;-3.28;89.87;101542.44;4982902;28;20098;-95
2022/01/21 04:39:41;;;;;;;2.30;1.13;;;;;;;-3.35;90.59;101553.28;4981284;28;20030;-93
2022/01/21 04:47:40;;;;;;;3.87;1.37;;;;;;;-3.29;91.37;101530.28;4994803;28;20030;-93
2022/01/21 04:53:12;;;;;;;5.18;1.05;;;;;;;-3.50;92.38;101540.47;5024060;28;20051;-93
2022/01/21 04:55:39;;;;;;;3.17;1.43;;;;;;;-3.54;92.98;101542.81;5039295;28;20058;-93
2022/01/21 04:58:06;;;;;;;2.83;1.87;;;;;;;-3.64;93.87;101543.16;5059757;28;20029;-94
2022/01/21 05:00:36;;;;;;;2.17;1.00;;;;;;;-3.61;94.17;101549.38;5046786;28;20036;-93
2022/01/21 05:03:03;;;;;;;4.53;1.57;;;;;;;-3.66;94.75;101543.09;5041203;28;20025;-91
2022/01/21 05:05:32;;;;;;;2.80;1.43;;;;;;;-3.67;94.94;101538.72;5052093;28;20037;-94
2022/01/21 05:08:04;;;;;;;5.73;2.07;;;;;;;-3.67;94.91;101545.59;5044446;28;20053;-93
2022/01/21 05:10:42;;;;;;;2.60;1.10;;;;;;;-3.54;95.79;101542.81;5041885;28;20024;-93
2022/01/21 05:13:09;;;;;;;10.57;2.50;;;;;;;-3.58;95.40;101538.31;5062910;28;20224;-94
2022/01/21 05:18:41;;;;;;;3.53;1.30;;;;;;;-3.72;96.04;101533.31;4986323;28;20031;-92
2022/01/21 05:21:07;;;;;;;2.50;1.47;;;;;;;-3.73;96.80;101534.13;5020330;28;20024;-94
2022/01/21 05:23:34;;;;;;;4.60;1.23;;;;;;;-3.71;96.75;101535.09;5050200;28;20028;-92
2022/01/21 05:26:03;;;;;;;4.27;1.53;;;;;;;-3.82;96.94;101530.19;5037035;28;20051;-94
2022/01/21 05:28:30;;;;;;;6.73;1.43;;;;;;;-3.83;97.14;101544.81;5033390;28;20056;-95
2022/01/21 05:30:57;;;;;;;7.50;1.60;;;;;;;-3.83;97.55;101538.75;5065828;28;20021;-93
2022/01/21 05:33:28;;;;;;;4.13;1.37;;;;;;;-3.72;97.09;101550.50;5051531;28;20025;-93
2022/01/21 05:35:55;;;;;;;4.73;1.70;;;;;;;-3.84;97.09;101549.88;5050037;28;20021;-93
2022/01/21 05:38:24;;;;;;;6.37;1.30;;;;;;;-3.83;97.49;101554.25;5046227;28;20021;-92
2022/01/21 05:40:51;;;;;;;8.47;1.40;;;;;;;-3.90;97.66;101544.41;5044993;28;20063;-93
2022/01/21 05:43:18;;;;;;;4.83;1.63;;;;;;;-3.97;97.49;101549.25;5045751;28;20025;-92
2022/01/21 05:46:26;;;;;;;3.07;1.20;;;;;;;-4.06;97.99;101563.34;5052747;28;20096;-92
2022/01/21 05:48:56;;;;;;;10.07;1.77;;;;;;;-4.01;98.07;101559.34;5062875;28;20025;-93
2022/01/21 05:51:23;;;;;;;4.47;1.40;;;;;;;-4.01;98.03;101561.91;5048033;28;20104;-93
2022/01/21 05:53:50;;;;;;;3.20;1.50;;;;;;;-4.11;98.12;101559.66;5050459;28;20059;-93
2022/01/21 05:56:24;;;;;;;4.47;1.37;;;;;;;-4.14;98.07;101550.06;5049331;28;20024;-93
2022/01/21 05:58:55;;;;;;;5.72;1.75;;;;;;;-4.17;97.83;101549.00;5047610;28;20104;-93
2022/01/21 06:01:22;;;;;;;1.83;0.90;;;;;;;-4.27;98.50;101557.97;5047943;28;20028;-93
2022/01/21 06:03:49;;;;;;;1.60;1.10;;;;;;;-4.31;98.61;101556.00;5047677;28;20035;-94
2022/01/21 06:06:18;;;;;;;4.30;1.47;;;;;;;-4.32;98.36;101569.72;5045564;28;20037;-93
2022/01/21 06:08:45;;;;;;;5.97;2.20;;;;;;;-4.34;98.86;101573.91;5066144;28;20028;-94
2022/01/21 06:11:14;;;;;;;7.90;2.53;;;;;;;-4.34;98.77;101571.34;5048827;28;20029;-94
2022/01/21 06:13:43;;;;;;;7.37;3.57;;;;;;;-4.35;98.88;101575.59;5050407;28;20043;-92
2022/01/21 06:16:10;;;;;;;3.83;2.30;;;;;;;-4.42;99.20;101580.34;5041144;28;20028;-93
2022/01/21 06:18:39;;;;;;;6.07;2.80;;;;;;;-4.47;98.82;101579.19;5066658;28;20021;-94
2022/01/21 06:21:06;;;;;;;4.03;2.20;;;;;;;-4.47;99.31;101574.94;5048559;28;20028;-94
2022/01/21 06:23:33;;;;;;;3.37;2.07;;;;;;;-4.53;99.26;101585.81;5050009;28;20025;-94
2022/01/21 06:26:02;;;;;;;11.23;2.67;;;;;;;-4.47;99.18;101582.66;5049103;28;20041;-94
2022/01/21 06:28:29;;;;;;;5.20;1.70;;;;;;;-4.44;98.12;101581.97;5049177;28;20039;-92
2022/01/21 06:30:58;;;;;;;7.60;1.80;;;;;;;-4.51;98.34;101573.00;5048923;28;20029;-93
2022/01/21 06:33:25;;;;;;;5.03;2.27;;;;;;;-4.47;98.32;101579.19;5049135;28;20047;-93
2022/01/21 06:35:53;;;;;;;4.53;1.80;;;;;;;-4.50;98.21;101589.34;5044753;28;20021;-93
2022/01/21 06:38:24;;;;;;;6.77;2.50;;;;;;;-4.56;98.45;101592.47;5055980;28;20059;-93
2022/01/21 06:40:51;;;;;;;6.43;2.00;;;;;;;-4.62;97.85;101589.59;5049113;28;20114;-92
2022/01/21 06:43:18;;;;;;;2.20;1.40;;;;;;;-4.61;98.80;101587.09;5048261;28;20043;-95
2022/01/21 06:45:45;;;;;;;4.07;1.63;;;;;;;-4.63;98.25;101587.78;5047500;28;20021;-93
2022/01/21 06:48:13;;;;;;;4.67;1.80;;;;;;;-4.66;98.73;101593.66;5039982;28;20025;-92
2022/01/21 06:50:41;;;;;;;5.63;2.33;;;;;;;-4.67;98.70;101597.03;5044053;28;20043;-94
2022/01/21 06:53:08;;;;;;;5.20;2.43;;;;;;;-4.73;99.21;101596.69;5048011;28;20028;-93
2022/01/21 06:55:36;;;;;;;6.03;2.20;;;;;;;-4.73;99.05;101596.69;5031014;28;20039;-94
2022/01/21 06:58:06;;;;;;;4.97;2.33;;;;;;;-4.72;98.66;101595.00;5044904;28;20036;-94
2022/01/21 07:00:33;;;;;;;3.97;1.90;;;;;;;-4.77;98.69;101599.03;5047875;28;20068;-92
2022/01/21 07:03:02;;;;;;;6.93;3.37;;;;;;;-4.75;98.51;101610.31;5045729;28;20046;-93
2022/01/21 07:05:36;;;;;;;6.63;2.03;;;;;;;-4.62;97.39;101613.66;5045598;28;20035;-93
2022/01/21 07:08:03;;;;;;;4.87;1.80;;;;;;;-4.73;97.21;101596.69;5064096;28;20050;-94
2022/01/21 07:10:30;;;;;;;8.83;2.33;;;;;;;-4.77;97.82;101605.06;5048660;28;20051;-93
2022/01/21 07:13:02;;;;;;;2.80;1.70;;;;;;;-4.83;98.53;101608.19;5049470;28;20047;-92
2022/01/21 07:15:29;;;;;;;4.50;2.03;;;;;;;-4.85;98.77;101611.47;5032785;28;20052;-95
2022/01/21 07:17:59;;;;;;;4.53;2.27;;;;;;;-4.86;98.71;101605.44;5041843;28;20024;-92
2022/01/21 07:20:26;;;;;;;5.90;3.03;;;;;;;-4.87;99.05;101621.72;5064257;28;20048;-94
2022/01/21 07:22:53;;;;;;;6.70;3.03;;;;;;;-4.85;98.76;101624.38;5062175;28;20036;-93
2022/01/21 07:25:22;;;;;;;4.70;3.17;;;;;;;-4.91;98.60;101622.31;5048063;28;20032;-92
2022/01/21 07:27:49;;;;;;;4.93;1.90;;;;;;;-4.93;98.89;101630.78;5041017;28;20029;-92
2022/01/21 07:30:16;;;;;;;5.70;1.73;;;;;;;-4.92;98.98;101622.25;5045661;28;20029;-93
2022/01/21 07:32:44;;;;;;;3.80;1.90;;;;;;;-4.90;98.85;101636.09;5062868;28;20033;-94
2022/01/21 07:35:11;;;;;;;4.37;2.00;;;;;;;-4.95;99.09;101622.09;5047950;28;20029;-93
2022/01/21 07:37:59;;;;;;;10.10;2.17;;;;;;;-4.96;98.85;101630.59;5066160;28;20025;-93
2022/01/21 07:40:29;;;;;;;3.97;1.50;;;;;;;-4.92;99.23;101629.97;5031344;28;20060;-94
2022/01/21 07:42:56;;;;;;;4.87;1.60;;;;;;;-4.87;98.87;101632.03;5043842;28;20115;-92
2022/01/21 07:45:22;;;;;;;3.90;1.70;;;;;;;-4.89;98.78;101637.88;5032834;28;20047;-94
2022/01/21 17:50:59;;;;;;;5.33;2.87;;;;;;;0.08;87.03;101525.66;5103431;23;20059;-84
2022/01/21 17:53:26;;;;;;;4.13;1.90;;;;;;;0.09;87.06;101519.66;5044305;28;20044;-84
2022/01/21 17:55:53;;;;;;;4.10;2.10;;;;;;;0.10;87.58;101531.81;5044864;28;20060;-83
2022/01/21 17:58:20;;;;;;;4.90;2.67;;;;;;;0.08;88.91;101523.06;5075921;28;20101;-83
2022/01/21 18:00:47;;;;;;;4.73;2.07;;;;;;;0.07;89.02;101528.19;5044189;28;20044;-84
2022/01/21 18:03:14;;;;;;;4.53;2.10;;;;;;;0.13;89.72;101526.72;5040638;28;20047;-84
2022/01/21 18:05:41;;;;;;;10.10;3.47;;;;;;;0.31;88.46;101521.28;5042014;28;20040;-84
2022/01/21 18:08:12;;;;;;;8.50;3.30;;;;;;;0.24;88.92;101522.78;5057667;28;20051;-84
2022/01/21 18:13:08;;;;;;;8.10;3.10;;;;;;;0.26;90.33;101515.06;5057480;28;20044;-84
2022/01/21 18:15:35;;;;;;;10.27;4.03;;;;;;;0.20;91.30;101512.22;5090602;28;20047;-84
2022/01/21 18:18:02;;;;;;;13.30;4.53;;;;;;;0.33;90.94;101516.13;5059821;28;20503;-84
2022/01/21 18:20:29;;;;;;;13.80;7.23;;;;;;;0.28;91.47;101505.59;5057730;28;20044;-83
2022/01/21 18:22:56;;;;;;;10.53;5.33;;;;;;;0.24;92.04;101514.09;5056521;28;20504;-84
2022/01/21 18:25:23;;;;;;;6.17;4.10;;;;;;;0.31;92.24;101510.00;5058027;28;20265;-84
2022/01/21 18:27:49;;;;;;;6.07;3.40;;;;;;;0.26;91.65;101502.94;5049592;28;20036;-84
2022/01/21 18:30:20;;;;;;;4.80;2.90;;;;;;;0.31;92.69;101507.41;5077684;28;20049;-84
2022/01/21 18:33:06;;;;;;;9.80;3.10;;;;;;;0.31;92.73;101504.81;5075767;28;20424;-83
2022/01/21 18:35:33;;;;;;;6.33;2.40;;;;;;;0.24;93.82;101501.97;5057749;28;20108;-83
2022/01/21 18:38:00;;;;;;;6.80;2.80;;;;;;;0.26;94.05;101502.94;5073111;28;20139;-84
2022/01/21 18:40:27;;;;;;;5.33;2.83;;;;;;;0.29;94.06;101496.94;5057735;28;20047;-84
2022/01/21 18:42:53;;;;;;;5.50;2.50;;;;;;;0.26;95.21;101499.47;5055976;28;20109;-84
2022/01/21 18:48:18;;;;;;;6.70;2.40;;;;;;;0.27;95.93;101485.63;5051679;28;20143;-83
2022/01/21 18:50:50;;;;;;;3.97;2.07;;;;;;;0.28;96.69;101484.78;5058472;28;20109;-83
2022/01/21 18:53:17;;;;;;;6.13;2.33;;;;;;;0.35;97.69;101486.78;5072893;28;20099;-83
2022/01/21 18:55:44;;;;;;;7.10;1.90;;;;;;;0.40;97.77;101482.59;5065569;28;20132;-84
2022/01/21 18:58:12;;;;;;;6.97;2.20;;;;;;;0.38;97.93;101486.88;5052655;28;20440;-83
2022/01/21 19:00:38;;;;;;;6.47;2.27;;;;;;;0.44;99.02;101478.41;5043496;28;20044;-83
2022/01/21 19:03:05;;;;;;;7.57;1.93;;;;;;;0.54;98.43;101470.97;5055737;28;20176;-85
2022/01/21 19:05:35;;;;;;;9.40;3.40;;;;;;;0.53;99.23;101473.50;5057137;28;20090;-84
2022/01/21 19:08:02;;;;;;;6.23;2.50;;;;;;;0.54;100.00;101481.34;5039567;28;20043;-84
2022/01/21 19:10:30;;;;;;;5.67;2.40;;;;;;;0.60;100.00;101477.19;5056714;28;20040;-84
2022/01/21 19:12:57;;;;;;;6.43;2.20;;;;;;;0.71;100.00;101475.81;5071727;28;20039;-83
2022/01/21 19:15:24;;;;;;;7.67;2.43;;;;;;;0.66;100.00;101470.47;5072952;28;20052;-84
2022/01/21 19:17:51;;;;;;;7.00;2.07;;;;;;;0.67;100.00;101473.94;5055402;28;20451;-83
2022/01/21 19:20:21;;;;;;;7.63;2.03;;;;;;;0.75;100.00;101459.47;5056689;28;20052;-83
2022/01/21 19:22:53;;;;;;;6.03;2.00;;;;;;;0.86;100.00;101472.84;5054649;28;20040;-83
2022/01/21 19:25:34;;;;;;;7.97;2.20;;;;;;;0.86;100.00;101476.31;5056523;28;20048;-82
2022/01/21 19:28:00;;;;;;;4.00;1.80;;;;;;;0.87;100.00;101475.50;5053492;28;20081;-84
2022/01/21 19:30:27;;;;;;;7.10;2.43;;;;;;;0.89;100.00;101471.22;5072749;28;20044;-84
2022/01/21 19:32:54;;;;;;;8.97;2.57;;;;;;;0.96;100.00;101472.28;5071512;28;20048;-83
2022/01/21 19:35:21;;;;;;;9.37;2.40;;;;;;;0.99;100.00;101482.78;5056241;28;20159;-84
2022/01/21 19:37:48;;;;;;;5.87;2.53;;;;;;;0.95;100.00;101471.41;5071872;28;20047;-84
2022/01/21 19:40:20;;;;;;;6.50;2.30;;;;;;;0.92;100.00;101463.50;5056320;28;20044;-83
2022/01/21 19:42:47;;;;;;;5.10;2.60;;;;;;;1.04;100.00;101457.81;5088344;28;20043;-84
2022/01/21 19:45:15;;;;;;;7.27;2.30;;;;;;;1.08;100.00;101455.31;5089937;28;20635;-84
2022/01/21 19:47:51;;;;;;;7.00;2.97;;;;;;;1.10;100.00;101453.69;5071415;28;20044;-83
2022/01/21 19:50:24;;;;;;;9.33;3.10;;;;;;;1.11;100.00;101452.84;5093081;28;20047;-85
2022/01/21 19:52:52;;;;;;;8.10;2.60;;;;;;;1.18;100.00;101453.00;5058757;28;20138;-85
2022/01/21 19:55:19;;;;;;;7.73;3.83;;;;;;;1.11;100.00;101452.84;5060670;28;20110;-86
2022/01/21 19:57:49;;;;;;;8.17;2.87;;;;;;;1.19;100.00;101450.47;5074571;28;20043;-86
2022/01/21 20:10:59;;;;;;;6.63;2.47;;;;;;;1.10;100.00;101455.41;5076209;28;20453;-85
2022/01/21 20:13:27;;;;;;;10.63;2.80;;;;;;;1.03;100.00;101451.72;5076875;28;20043;-86
2022/01/21 20:15:53;;;;;;;8.93;2.80;;;;;;;1.00;100.00;101450.72;5059309;28;20047;-85
2022/01/21 20:18:22;;;;;;;8.90;3.00;;;;;;;0.95;100.00;101458.41;5075359;28;20035;-85
2022/01/21 20:20:49;;;;;;;5.83;2.77;;;;;;;1.02;100.00;101447.34;5055496;28;20574;-86
2022/01/21 20:23:16;;;;;;;6.23;2.87;;;;;;;0.92;100.00;101453.09;5054411;28;20044;-86
2022/01/21 20:25:42;;;;;;;9.63;3.30;;;;;;;1.06;100.00;101449.19;5055860;28;20048;-86
2022/01/21 20:28:09;;;;;;;7.70;2.90;;;;;;;1.05;100.00;101447.44;5038395;28;20050;-87
2022/01/21 20:30:36;;;;;;;9.40;3.37;;;;;;;0.99;100.00;101439.44;5072559;28;20048;-87
2022/01/21 20:33:03;;;;;;;8.93;3.23;;;;;;;0.84;100.00;101439.88;5054358;28;20040;-87
2022/01/21 20:35:30;;;;;;;11.83;3.83;;;;;;;0.87;100.00;101435.59;5061059;28;20036;-86
2022/01/21 20:37:57;;;;;;;14.30;4.57;;;;;;;0.92;100.00;101428.78;5054216;28;20051;-88
2022/01/21 20:42:52;;;;;;;8.50;3.00;;;;;;;0.90;100.00;101435.66;5076799;28;20051;-86
2022/01/21 20:45:20;;;;;;;7.73;3.50;;;;;;;0.97;100.00;101425.50;5058439;28;20045;-86
2022/01/21 20:47:50;;;;;;;10.37;3.83;;;;;;;0.89;100.00;101419.19;5057360;28;20397;-87
2022/01/21 20:50:17;;;;;;;7.70;3.60;;;;;;;0.80;100.00;101418.91;5084712;28;20485;-86
2022/01/21 20:52:44;;;;;;;7.37;3.40;;;;;;;0.78;100.00;101423.19;5042371;28;20047;-87
2022/01/21 20:55:10;;;;;;;6.60;3.03;;;;;;;0.88;100.00;101408.72;5065191;28;20036;-85
2022/01/21 20:57:38;;;;;;;6.23;3.10;;;;;;;0.89;100.00;101411.38;5074071;28;20044;-88
2022/01/21 21:00:07;;;;;;;9.73;3.70;;;;;;;0.87;100.00;101400.06;5059111;28;20093;-85
2022/01/21 21:02:34;;;;;;;9.53;3.63;;;;;;;0.85;100.00;101399.13;5057524;28;20040;-86
2022/01/21 21:05:01;;;;;;;8.67;3.40;;;;;;;0.89;100.00;101398.38;5061298;28;20046;-86
2022/01/21 21:07:28;;;;;;;8.37;3.73;;;;;;;0.92;100.00;101400.16;5061077;28;20043;-87
2022/01/21 21:09:54;;;;;;;8.07;3.97;;;;;;;0.90;100.00;101410.53;5062469;28;20055;-86
2022/01/21 21:12:22;;;;;;;6.20;3.33;;;;;;;0.86;100.00;101413.00;5058992;28;20042;-86
2022/01/21 21:14:56;;;;;;;8.10;3.27;;;;;;;1.01;100.00;101396.16;5074664;28;20070;-86
2022/01/21 21:25:31;;;;;;;5.57;3.33;;;;;;;0.99;100.00;101395.19;5077895;28;20051;-87
2022/01/21 21:28:04;;;;;;;9.23;4.03;;;;;;;0.92;100.00;101398.44;5056887;28;20096;-86
2022/01/21 21:30:42;;;;;;;5.03;3.03;;;;;;;0.93;100.00;101399.38;5095088;28;20044;-85
2022/01/21 23:00:47;;;;;;;5.67;2.90;;;;;;;1.10;100.00;101365.19;5075284;28;20048;-83
2022/01/21 23:03:15;;;;;;;5.03;2.67;;;;;;;1.11;100.00;101351.34;5059659;28;20044;-84
2022/01/21 23:05:43;;;;;;;4.03;2.87;;;;;;;1.12;100.00;101358.31;5073363;28;20047;-85
2022/01/21 23:08:12;;;;;;;5.90;2.90;;;;;;;1.10;100.00;101346.97;5073415;28;20140;-85
2022/01/21 23:10:39;;;;;;;6.43;3.23;;;;;;;1.22;100.00;101361.16;5091002;28;20043;-85
2022/01/21 23:13:06;;;;;;;5.67;2.93;;;;;;;1.15;100.00;101367.91;5072283;28;20450;-84
2022/01/21 23:15:34;;;;;;;6.00;3.33;;;;;;;1.12;100.00;101357.44;5073990;28;20458;-84
2022/01/21 23:18:05;;;;;;;5.50;3.73;;;;;;;1.11;100.00;101363.47;5073636;28;20092;-86
2022/01/21 23:20:32;;;;;;;4.23;3.00;;;;;;;1.16;100.00;101366.19;5053916;28;20109;-85
2022/01/21 23:22:59;;;;;;;4.73;2.97;;;;;;;1.12;100.00;101362.63;5055496;28;21687;-85
2022/01/21 23:25:31;;;;;;;6.03;4.17;;;;;;;1.10;100.00;101372.13;5056627;28;20042;-85
2022/01/21 23:28:00;;;;;;;6.17;3.73;;;;;;;1.11;100.00;101368.69;5072769;28;20042;-85
2022/01/21 23:30:28;;;;;;;4.63;3.07;;;;;;;1.10;100.00;101375.59;5058049;28;20117;-85
2022/01/21 23:32:56;;;;;;;5.50;3.43;;;;;;;1.11;100.00;101376.50;5068103;28;20044;-83
2022/01/21 23:35:30;;;;;;;5.37;3.60;;;;;;;1.37;100.00;101375.50;5057896;28;20047;-85
2022/01/21 23:40:43;;;;;;;6.83;3.50;;;;;;;1.21;100.00;101385.44;5087150;28;20048;-85
2022/01/21 23:43:10;;;;;;;5.43;3.17;;;;;;;1.29;100.00;101379.63;5053594;28;20047;-85
2022/01/21 23:45:37;;;;;;;6.47;3.50;;;;;;;1.27;100.00;101383.03;5056892;28;20734;-85
2022/01/21 23:48:08;;;;;;;5.90;3.80;;;;;;;1.24;100.00;101381.19;5055745;28;20629;-84
2022/01/21 23:50:51;;;;;;;5.73;4.03;;;;;;;1.27;100.00;101380.41;5074195;28;20820;-85
2022/01/21 23:53:31;;;;;;;5.70;3.20;;;;;;;1.26;100.00;101383.84;5078267;28;20039;-86
2022/01/21 23:55:58;;;;;;;4.97;3.57;;;;;;;1.27;100.00;101380.41;5056595;28;20054;-85
2022/01/21 23:58:25;;;;;;;5.97;3.37;;;;;;;1.50;100.00;101384.53;5056011;28;20526;-85
